createdAt,value
2023-01-22T00:00:40.249Z,83.60
2023-01-22T00:03:29.579Z,97.25
2023-01-22T00:06:18.913Z,88.22
2023-01-22T00:09:09.606Z,78.38
2023-01-22T00:11:59.248Z,79.40
2023-01-22T00:14:49.819Z,68.70
2023-01-22T00:17:39.048Z,87.05
2023-01-22T00:20:28.313Z,86.78
2023-01-22T00:23:17.882Z,75.43
2023-01-22T00:26:12.169Z,121.47
2023-01-22T00:29:03.047Z,120.75
2023-01-22T00:31:52.298Z,85.85
2023-01-22T00:34:41.632Z,89.47
2023-01-22T00:37:31.031Z,74.72
2023-01-22T00:40:20.837Z,91.63
2023-01-22T00:43:11.757Z,85.85
2023-01-22T00:46:01.179Z,88.13
2023-01-22T00:48:51.242Z,94.00
2023-01-22T00:51:40.628Z,69.88
2023-01-22T00:54:31.121Z,84.78
2023-01-22T00:57:22.033Z,75.25
2023-01-22T01:00:18.559Z,78.75
2023-01-22T01:03:28.404Z,71.10
2023-01-22T01:06:20.630Z,82.35
2023-01-22T01:09:10.190Z,79.53
2023-01-22T01:12:00.524Z,103.85
2023-01-22T01:14:50.760Z,84.57
2023-01-22T01:17:41.429Z,141.20
2023-01-22T01:20:30.709Z,80.55
2023-01-22T01:23:19.973Z,137.18
2023-01-22T01:26:12.013Z,92.40
2023-01-22T01:29:01.397Z,74.78
2023-01-22T01:31:53.436Z,79.47
2023-01-22T01:34:45.686Z,209.20
2023-01-22T01:37:35.030Z,76.47
2023-01-22T01:40:24.395Z,122.15
2023-01-22T01:43:17.107Z,101.53
2023-01-22T01:46:16.183Z,140.35
2023-01-22T01:49:06.707Z,104.45
2023-01-22T01:52:02.751Z,70.32
2023-01-22T01:54:57.966Z,98.38
2023-01-22T01:57:47.740Z,94.15
2023-01-22T02:00:40.735Z,77.97
2023-01-22T02:03:31.352Z,90.07
2023-01-22T02:06:21.750Z,98.95
2023-01-22T02:09:12.631Z,86.82
2023-01-22T02:12:01.937Z,132.75
2023-01-22T02:14:52.704Z,76.53
2023-01-22T02:17:42.555Z,87.97
2023-01-22T02:20:37.781Z,89.85
2023-01-22T02:23:32.824Z,72.45
2023-01-22T02:29:15.439Z,132.10
2023-01-22T02:32:05.309Z,99.90
2023-01-22T02:34:54.746Z,116.13
2023-01-22T02:37:45.616Z,110.50
2023-01-22T02:40:35.092Z,50.22
2023-01-22T02:43:24.890Z,24.90
2023-01-22T02:46:14.215Z,20.90
2023-01-22T02:49:03.557Z,24.77
2023-01-22T02:51:55.231Z,46.22
2023-01-22T02:54:47.456Z,27.25
2023-01-22T02:57:36.642Z,34.75
2023-01-22T03:00:26.098Z,29.92
2023-01-22T03:03:16.462Z,20.08
2023-01-22T03:06:07.257Z,22.00
2023-01-22T03:08:59.702Z,41.08
2023-01-22T03:11:50.754Z,107.13
2023-01-22T03:15:04.779Z,17.60
2023-01-22T03:18:10.961Z,22.98
2023-01-22T03:21:16.794Z,40.05
2023-01-22T03:24:06.891Z,46.55
2023-01-22T03:26:57.594Z,25.63
2023-01-22T03:29:47.118Z,29.75
2023-01-22T03:32:36.310Z,42.40
2023-01-22T03:35:25.603Z,29.48
2023-01-22T03:38:29.121Z,37.55
2023-01-22T03:41:20.020Z,17.42
2023-01-22T03:44:14.400Z,23.35
2023-01-22T03:47:05.053Z,19.95
2023-01-22T03:49:54.328Z,23.00
2023-01-22T03:52:43.948Z,21.85
2023-01-22T03:55:33.422Z,16.95
2023-01-22T03:58:22.619Z,16.90
2023-01-22T04:01:16.524Z,28.48
2023-01-22T04:04:06.685Z,21.13
2023-01-22T04:06:55.980Z,278.35
2023-01-22T04:09:45.552Z,41.83
2023-01-22T04:12:35.301Z,46.88
2023-01-22T04:15:24.602Z,58.65
2023-01-22T04:18:17.701Z,59.65
2023-01-22T04:21:39.325Z,15.52
2023-01-22T04:24:31.587Z,14.13
2023-01-22T04:27:22.109Z,45.58
2023-01-22T04:30:14.572Z,31.65
2023-01-22T04:33:04.182Z,60.58
2023-01-22T04:36:07.056Z,124.28
2023-01-22T04:38:56.435Z,27.27
2023-01-22T04:41:45.709Z,105.45
2023-01-22T04:44:35.933Z,110.57
2023-01-22T04:47:25.237Z,30.80
2023-01-22T04:50:19.060Z,47.05
2023-01-22T04:53:11.178Z,74.55
2023-01-22T04:56:00.936Z,21.25
2023-01-22T04:58:50.779Z,31.52
2023-01-22T05:01:40.168Z,20.27
2023-01-22T05:04:29.531Z,34.05
2023-01-22T05:07:18.842Z,23.80
2023-01-22T05:10:11.503Z,28.52
2023-01-22T05:13:05.343Z,21.00
2023-01-22T05:15:55.221Z,35.30
2023-01-22T05:18:46.955Z,36.83
2023-01-22T05:21:36.839Z,24.92
2023-01-22T05:24:28.050Z,22.00
2023-01-22T05:27:18.714Z,28.10
2023-01-22T05:30:21.789Z,37.47
2023-01-22T05:33:21.631Z,85.38
2023-01-22T05:36:12.801Z,58.92
2023-01-22T05:39:02.583Z,46.05
2023-01-22T05:41:53.520Z,76.95
2023-01-22T05:44:44.533Z,51.28
2023-01-22T05:47:35.221Z,39.45
2023-01-22T05:50:53.574Z,45.90
2023-01-22T05:53:43.030Z,50.17
2023-01-22T05:56:33.108Z,40.05
2023-01-22T05:59:22.585Z,37.35
2023-01-22T06:02:19.480Z,95.78
2023-01-22T06:05:10.102Z,39.88
2023-01-22T06:07:59.550Z,41.17
2023-01-22T06:10:59.576Z,35.47
2023-01-22T06:13:49.084Z,41.38
2023-01-22T06:16:40.845Z,54.15
2023-01-22T06:19:54.576Z,41.47
2023-01-22T06:22:43.816Z,44.75
2023-01-22T06:25:33.758Z,35.60
2023-01-22T06:28:36.311Z,35.42
2023-01-22T06:31:25.787Z,37.30
2023-01-22T06:34:15.293Z,36.85
2023-01-22T06:37:06.219Z,36.60
2023-01-22T06:39:59.825Z,109.57
2023-01-22T06:42:58.887Z,36.53
2023-01-22T06:45:48.292Z,36.85
2023-01-22T06:48:37.811Z,35.78
2023-01-22T06:51:27.197Z,43.95
2023-01-22T06:54:18.050Z,101.00
2023-01-22T06:57:07.552Z,33.35
2023-01-22T06:59:59.835Z,54.08
2023-01-22T07:02:49.150Z,55.92
2023-01-22T07:05:38.446Z,39.30
2023-01-22T07:08:29.184Z,41.92
2023-01-22T07:11:19.818Z,39.15
2023-01-22T07:14:09.035Z,42.10
2023-01-22T07:16:59.057Z,34.47
2023-01-22T07:19:48.372Z,40.58
2023-01-22T07:22:37.574Z,45.80
2023-01-22T07:25:27.977Z,36.28
2023-01-22T07:28:18.717Z,46.92
2023-01-22T07:31:11.602Z,55.88
2023-01-22T07:34:00.849Z,19.20
2023-01-22T07:36:50.358Z,29.30
2023-01-22T07:39:39.587Z,32.95
2023-01-22T07:42:28.911Z,74.90
2023-01-22T07:45:20.363Z,29.52
2023-01-22T07:48:10.959Z,30.45
2023-01-22T07:51:04.918Z,66.10
2023-01-22T07:53:54.197Z,34.22
2023-01-22T07:56:43.375Z,37.08
2023-01-22T07:59:32.758Z,36.03
2023-01-22T08:02:23.532Z,33.10
2023-01-22T08:05:14.973Z,28.23
2023-01-22T08:08:04.220Z,29.88
2023-01-22T08:10:53.489Z,29.80
2023-01-22T08:13:43.020Z,32.42
2023-01-22T08:16:32.304Z,54.88
2023-01-22T08:19:23.047Z,28.45
2023-01-22T08:22:12.340Z,33.13
2023-01-22T08:25:01.654Z,35.10
2023-01-22T08:27:50.812Z,29.52
2023-01-22T08:30:46.012Z,28.70
2023-01-22T08:33:36.369Z,25.65
2023-01-22T08:36:27.064Z,32.83
2023-01-22T08:39:16.322Z,24.45
2023-01-22T08:42:05.714Z,28.15
2023-01-22T08:44:55.022Z,29.05
2023-01-22T08:47:44.239Z,54.00
2023-01-22T08:50:33.430Z,26.42
2023-01-22T08:53:24.389Z,46.25
2023-01-22T08:56:13.659Z,23.70
2023-01-22T08:59:06.635Z,23.48
2023-01-22T09:01:56.143Z,30.10
2023-01-22T09:04:45.381Z,26.77
2023-01-22T09:07:34.711Z,29.13
2023-01-22T09:10:25.684Z,20.35
2023-01-22T09:13:15.025Z,24.30
2023-01-22T09:16:06.154Z,23.58
2023-01-22T09:18:55.900Z,21.05
2023-01-22T09:21:45.288Z,23.67
2023-01-22T09:24:34.866Z,25.63
2023-01-22T09:27:25.588Z,21.95
2023-01-22T09:30:15.649Z,24.40
2023-01-22T09:33:05.104Z,23.63
2023-01-22T09:35:54.421Z,24.58
2023-01-22T09:38:43.933Z,25.15
2023-01-22T09:41:35.871Z,22.73
2023-01-22T09:44:35.198Z,26.98
2023-01-22T09:47:34.445Z,25.58
2023-01-22T09:50:27.448Z,23.55
2023-01-22T09:53:21.202Z,21.40
2023-01-22T09:56:20.940Z,32.20
2023-01-22T09:59:18.606Z,22.50
2023-01-22T10:02:25.455Z,25.50
2023-01-22T10:05:32.100Z,23.73
2023-01-22T10:08:24.912Z,25.55
2023-01-22T10:11:14.328Z,26.52
2023-01-22T10:14:07.171Z,25.73
2023-01-22T10:16:59.567Z,28.60
2023-01-22T10:19:55.086Z,26.90
2023-01-22T10:22:44.300Z,33.60
2023-01-22T10:25:34.722Z,94.55
2023-01-22T10:28:28.458Z,61.03
2023-01-22T10:31:31.052Z,69.53
2023-01-22T10:34:30.360Z,81.43
2023-01-22T10:37:21.087Z,41.92
2023-01-22T10:40:26.693Z,48.83
2023-01-22T10:43:18.734Z,56.10
2023-01-22T10:46:20.720Z,46.33
2023-01-22T10:49:20.412Z,43.40
2023-01-22T10:52:24.868Z,42.72
2023-01-22T10:55:24.567Z,40.13
2023-01-22T10:58:18.563Z,75.82
2023-01-22T11:01:32.675Z,50.67
2023-01-22T11:04:25.507Z,40.75
2023-01-22T11:07:22.093Z,62.80
2023-01-22T11:10:25.393Z,39.92
2023-01-22T11:16:16.404Z,48.97
2023-01-22T11:19:13.246Z,39.00
2023-01-22T11:22:04.712Z,55.50
2023-01-22T11:24:54.176Z,41.70
2023-01-22T11:28:08.167Z,41.33
2023-01-22T11:31:40.947Z,44.53
2023-01-22T11:34:59.072Z,74.25
2023-01-22T11:38:06.503Z,37.10
2023-01-22T11:41:16.510Z,40.80
2023-01-22T11:44:52.799Z,35.88
2023-01-22T11:48:02.619Z,35.30
2023-01-22T11:51:01.399Z,36.42
2023-01-22T11:54:18.804Z,36.97
2023-01-22T11:57:18.250Z,44.42
2023-01-22T12:00:45.626Z,60.22
2023-01-22T12:04:10.162Z,53.00
2023-01-22T12:07:45.799Z,48.28
2023-01-22T12:11:08.375Z,39.70
2023-01-22T12:14:24.713Z,46.65
2023-01-22T12:17:30.553Z,50.80
2023-01-22T12:20:47.405Z,38.88
2023-01-22T12:23:45.530Z,40.13
2023-01-22T12:26:39.403Z,42.70
2023-01-22T12:29:34.409Z,44.72
2023-01-22T12:32:27.853Z,41.88
2023-01-22T12:35:19.920Z,41.83
2023-01-22T12:38:21.155Z,41.20
2023-01-22T12:41:24.448Z,39.33
2023-01-22T12:47:24.218Z,30.13
2023-01-22T12:50:24.127Z,36.80
2023-01-22T12:53:26.210Z,46.88
2023-01-22T12:56:15.389Z,40.33
2023-01-22T12:59:04.671Z,41.30
2023-01-22T13:02:01.535Z,44.00
2023-01-22T13:04:51.484Z,38.13
2023-01-22T13:07:43.055Z,43.15
2023-01-22T13:10:34.962Z,61.30
2023-01-22T13:13:30.788Z,47.17
2023-01-22T13:16:28.744Z,39.60
2023-01-22T13:19:24.557Z,48.72
2023-01-22T13:22:18.288Z,34.42
2023-01-22T13:25:24.283Z,40.95
2023-01-22T13:28:19.513Z,69.82
2023-01-22T13:31:17.134Z,35.70
2023-01-22T13:34:09.045Z,50.25
2023-01-22T13:36:59.429Z,38.33
2023-01-22T13:39:48.675Z,36.17
2023-01-22T13:42:42.174Z,35.72
2023-01-22T13:45:33.204Z,42.10
2023-01-22T13:48:27.275Z,36.88
2023-01-22T13:51:21.839Z,37.75
2023-01-22T13:54:20.581Z,36.83
2023-01-22T13:57:12.907Z,34.53
2023-01-22T14:00:05.572Z,39.08
2023-01-22T14:02:56.493Z,41.97
2023-01-22T14:05:45.676Z,40.95
2023-01-22T14:08:47.801Z,42.03
2023-01-22T14:11:41.209Z,43.30
2023-01-22T14:14:41.140Z,42.65
2023-01-22T14:17:34.520Z,40.70
2023-01-22T14:20:23.810Z,40.33
2023-01-22T14:23:13.606Z,74.43
2023-01-22T14:26:06.214Z,41.65
2023-01-22T14:28:55.580Z,44.65
2023-01-22T14:31:44.873Z,42.35
2023-01-22T14:34:35.547Z,44.63
2023-01-22T14:37:24.980Z,46.60
2023-01-22T14:40:17.720Z,50.38
2023-01-22T14:43:08.018Z,53.97
2023-01-22T14:45:57.282Z,46.55
2023-01-22T14:48:46.655Z,51.83
2023-01-22T14:51:37.185Z,52.33
2023-01-22T14:54:26.669Z,62.75
2023-01-22T14:57:15.971Z,50.70
2023-01-22T15:00:08.728Z,52.47
2023-01-22T15:02:58.385Z,45.35
2023-01-22T15:05:51.568Z,45.80
2023-01-22T15:11:31.280Z,58.30
2023-01-22T15:14:20.609Z,51.03
2023-01-22T15:17:10.314Z,50.92
2023-01-22T15:19:59.546Z,47.67
2023-01-22T15:22:49.635Z,50.63
2023-01-22T15:25:40.319Z,48.78
2023-01-22T15:28:30.411Z,49.70
2023-01-22T15:31:19.642Z,50.63
2023-01-22T15:34:08.986Z,50.47
2023-01-22T15:36:58.277Z,51.90
2023-01-22T15:39:47.600Z,49.72
2023-01-22T15:42:38.548Z,48.25
2023-01-22T15:45:27.866Z,51.75
2023-01-22T15:48:17.235Z,51.70
2023-01-22T15:51:11.287Z,49.80
2023-01-22T15:54:02.877Z,50.58
2023-01-22T15:56:52.435Z,50.95
2023-01-22T15:59:43.404Z,52.97
2023-01-22T16:02:32.748Z,48.85
2023-01-22T16:05:22.419Z,48.38
2023-01-22T16:08:11.744Z,47.33
2023-01-22T16:11:00.996Z,50.05
2023-01-22T16:13:50.571Z,47.75
2023-01-22T16:16:41.338Z,47.58
2023-01-22T16:19:30.484Z,49.65
2023-01-22T16:22:19.769Z,47.88
2023-01-22T16:25:10.036Z,48.33
2023-01-22T16:27:59.310Z,51.38
2023-01-22T16:30:48.594Z,46.72
2023-01-22T16:33:43.573Z,50.47
2023-01-22T16:36:33.498Z,45.55
2023-01-22T16:39:25.925Z,49.80
2023-01-22T16:42:15.169Z,46.63
2023-01-22T16:45:04.684Z,48.50
2023-01-22T16:47:54.030Z,51.67
2023-01-22T16:50:44.781Z,44.85
2023-01-22T16:53:35.053Z,48.90
2023-01-22T16:56:24.383Z,51.83
2023-01-22T16:59:13.684Z,66.18
2023-01-22T17:02:05.752Z,46.80
2023-01-22T17:04:57.222Z,44.38
2023-01-22T17:07:47.837Z,42.95
2023-01-22T17:10:37.556Z,42.35
2023-01-22T17:13:26.748Z,43.42
2023-01-22T17:16:16.973Z,50.17
2023-01-22T17:19:06.446Z,56.20
2023-01-22T17:21:58.981Z,69.65
2023-01-22T17:24:49.908Z,53.97
2023-01-22T17:27:39.955Z,52.70
2023-01-22T17:30:29.223Z,55.90
2023-01-22T17:33:20.956Z,50.45
2023-01-22T17:36:14.168Z,63.42
2023-01-22T17:39:03.747Z,59.20
2023-01-22T17:41:54.418Z,67.20
2023-01-22T17:44:43.760Z,63.63
2023-01-22T17:47:32.937Z,47.08
2023-01-22T17:50:22.208Z,56.90
2023-01-22T17:53:11.557Z,75.57
2023-01-22T17:56:10.411Z,51.85
2023-01-22T17:59:04.364Z,43.75
2023-01-22T18:01:53.778Z,51.75
2023-01-22T18:04:43.040Z,50.25
2023-01-22T18:07:32.264Z,57.88
2023-01-22T18:10:21.440Z,89.38
2023-01-22T18:13:10.690Z,80.93
2023-01-22T18:16:02.385Z,96.30
2023-01-22T18:18:54.555Z,91.60
2023-01-22T18:21:43.737Z,91.78
2023-01-22T18:24:34.408Z,104.78
2023-01-22T18:27:24.163Z,102.35
2023-01-22T18:30:15.516Z,100.05
2023-01-22T18:33:06.280Z,102.78
2023-01-22T18:35:55.527Z,115.53
2023-01-22T18:38:45.080Z,117.18
2023-01-22T18:41:34.847Z,106.40
2023-01-22T18:44:27.685Z,113.93
2023-01-22T18:47:16.956Z,114.50
2023-01-22T18:50:10.078Z,106.78
2023-01-22T18:55:50.270Z,102.28
2023-01-22T18:58:41.318Z,109.80
2023-01-22T19:01:33.547Z,112.22
2023-01-22T19:04:23.167Z,107.80
2023-01-22T19:07:13.862Z,105.10
2023-01-22T19:10:04.693Z,103.53
2023-01-22T19:12:53.897Z,82.20
2023-01-22T19:15:43.124Z,79.38
2023-01-22T19:18:32.378Z,74.03
2023-01-22T19:21:23.743Z,72.20
2023-01-22T19:24:15.937Z,81.30
2023-01-22T19:27:05.201Z,80.47
2023-01-22T19:29:55.206Z,84.53
2023-01-22T19:32:45.237Z,66.70
2023-01-22T19:35:34.438Z,69.57
2023-01-22T19:38:24.335Z,54.30
2023-01-22T19:41:15.306Z,58.80
2023-01-22T19:44:04.866Z,61.00
2023-01-22T19:46:54.131Z,59.83
2023-01-22T19:49:43.866Z,58.63
2023-01-22T19:52:33.313Z,61.13
2023-01-22T19:55:24.716Z,73.38
2023-01-22T19:58:15.407Z,71.55
2023-01-22T20:01:10.169Z,73.53
2023-01-22T20:03:59.545Z,76.03
2023-01-22T20:06:51.028Z,75.15
2023-01-22T20:09:40.239Z,80.30
2023-01-22T20:12:29.565Z,68.65
2023-01-22T20:15:20.827Z,60.58
2023-01-22T20:18:11.417Z,60.05
2023-01-22T20:21:02.870Z,67.82
2023-01-22T20:23:52.635Z,66.25
2023-01-22T20:26:42.137Z,67.57
2023-01-22T20:29:31.555Z,66.38
2023-01-22T20:32:22.743Z,73.85
2023-01-22T20:35:15.595Z,79.32
2023-01-22T20:38:04.888Z,71.95
2023-01-22T20:40:54.529Z,65.60
2023-01-22T20:43:45.091Z,62.53
2023-01-22T20:46:36.110Z,65.55
2023-01-22T20:49:27.181Z,65.13
2023-01-22T20:52:18.931Z,70.18
2023-01-22T20:55:10.693Z,69.47
2023-01-22T20:58:00.106Z,67.97
2023-01-22T21:00:49.397Z,73.53
2023-01-22T21:03:39.013Z,77.75
2023-01-22T21:06:31.804Z,82.85
2023-01-22T21:09:21.164Z,121.75
2023-01-22T21:12:13.170Z,126.70
2023-01-22T21:15:03.246Z,75.32
2023-01-22T21:17:52.517Z,70.03
2023-01-22T21:20:41.736Z,67.28
2023-01-22T21:23:32.436Z,54.97
2023-01-22T21:26:25.269Z,54.67
2023-01-22T21:29:17.182Z,55.78
2023-01-22T21:32:06.703Z,54.50
2023-01-22T21:34:56.178Z,58.55
2023-01-22T21:37:45.407Z,63.65
2023-01-22T21:40:35.978Z,64.20
2023-01-22T21:43:42.559Z,61.17
2023-01-22T21:46:35.509Z,59.47
2023-01-22T21:49:25.256Z,58.67
2023-01-22T21:52:14.454Z,63.30
2023-01-22T21:55:03.683Z,69.25
2023-01-22T21:57:54.277Z,64.72
2023-01-22T22:00:43.609Z,64.93
2023-01-22T22:03:35.013Z,67.15
2023-01-22T22:06:24.253Z,67.53
2023-01-22T22:09:16.252Z,73.90
2023-01-22T22:12:07.295Z,71.65
2023-01-22T22:14:58.098Z,82.43
2023-01-22T22:17:47.412Z,77.95
2023-01-22T22:20:37.420Z,86.82
2023-01-22T22:23:26.808Z,78.63
2023-01-22T22:26:16.123Z,73.97
2023-01-22T22:29:06.483Z,74.55
2023-01-22T22:31:57.110Z,79.38
2023-01-22T22:34:46.367Z,83.68
2023-01-22T22:37:35.640Z,84.68
2023-01-22T22:40:24.951Z,94.85
2023-01-22T22:43:15.823Z,115.78
2023-01-22T22:46:08.165Z,113.15
2023-01-22T22:49:01.419Z,108.10
2023-01-22T22:51:50.731Z,86.78
2023-01-22T22:54:40.411Z,78.55
2023-01-22T22:57:29.761Z,84.90
2023-01-22T23:00:20.676Z,86.47
2023-01-22T23:03:10.133Z,84.95
2023-01-22T23:06:08.295Z,83.13
2023-01-22T23:08:59.403Z,86.30
2023-01-22T23:11:51.753Z,125.95
2023-01-22T23:14:41.282Z,100.57
2023-01-22T23:17:30.653Z,90.75
2023-01-22T23:20:20.989Z,89.60
2023-01-22T23:23:11.666Z,87.72
2023-01-22T23:26:01.095Z,86.95
2023-01-22T23:28:52.182Z,94.85
2023-01-22T23:31:42.508Z,92.90
2023-01-22T23:34:31.873Z,99.38
2023-01-22T23:37:21.074Z,78.93
2023-01-22T23:40:14.074Z,80.32
2023-01-22T23:43:04.019Z,84.20
2023-01-22T23:45:53.653Z,88.65
2023-01-22T23:48:43.464Z,90.70
2023-01-22T23:51:33.236Z,88.55
2023-01-22T23:54:22.671Z,84.80
2023-01-22T23:57:13.470Z,85.40
